Time;durP1;ratioP1;P1;durP2;ratioP2;P2;SDS_P1;SDS_P2;PMS_P1;PMS_P2;Temp;Humidity;BMP_temperature;BMP_pressure;BME280_temperature;BME280_humidity;BME280_pressure;Samples;Min_cycle;Max_cycle;Signal;HPM_P1;HPM_P2
2022/01/26 00:00:56;;;;;;;95.68;35.17;;;;;;;2.45;95.50;103204.06;2096025;28;42727;-76
2022/01/26 00:06:17;;;;;;;95.05;33.65;;;;;;;2.44;95.17;103202.25;2105968;28;20075;-76
2022/01/26 00:07:19;;;;;;;83.93;29.40;;;;;;;2.44;95.47;103195.25;2104407;28;43107;-76
2022/01/26 00:08:24;;;;;;;106.40;36.90;;;;;;;2.45;95.25;103204.06;2104766;28;45294;-75
2022/01/26 00:09:26;;;;;;;101.95;35.47;;;;;;;2.46;95.69;103203.25;2104218;28;45554;-75
2022/01/26 00:10:31;;;;;;;102.68;36.50;;;;;;;2.43;95.47;103198.69;2087333;28;36178;-74
2022/01/26 00:11:35;;;;;;;106.20;36.10;;;;;;;2.45;95.66;103201.44;2086940;28;46053;-74
2022/01/26 00:12:36;;;;;;;99.90;35.30;;;;;;;2.45;95.74;103190.84;2105317;28;24059;-74
2022/01/26 00:13:38;;;;;;;103.30;36.10;;;;;;;2.44;95.59;103195.25;2104337;28;44040;-72
2022/01/26 00:14:42;;;;;;;99.05;34.05;;;;;;;2.44;95.78;103187.31;2104826;28;45800;-75
2022/01/26 00:15:44;;;;;;;90.53;33.83;;;;;;;2.44;95.83;103189.94;2104391;28;41946;-76
2022/01/26 00:16:49;;;;;;;104.18;34.90;;;;;;;2.45;95.31;103197.03;2103636;28;45853;-76
2022/01/26 00:17:54;;;;;;;96.57;33.42;;;;;;;2.46;95.61;103195.31;2105596;28;20959;-77
2022/01/26 00:18:59;;;;;;;104.30;36.83;;;;;;;2.45;95.73;103191.75;2104726;28;45157;-76
2022/01/26 00:20:17;;;;;;;93.93;31.95;;;;;;;2.45;95.47;103188.19;2104225;28;43302;-76
2022/01/26 00:21:28;;;;;;;102.93;35.38;;;;;;;2.43;95.46;103185.47;2103872;28;44086;-76
2022/01/26 00:23:33;;;;;;;102.00;35.83;;;;;;;2.43;95.42;103190.78;2104430;28;43985;-77
2022/01/26 00:25:47;;;;;;;100.50;34.97;;;;;;;2.45;95.50;103188.19;2104831;28;44035;-77
2022/01/26 00:39:33;;;;;;;98.03;32.88;;;;;;;2.41;95.81;103179.22;2106425;28;46829;-74
2022/01/26 00:40:41;;;;;;;99.38;34.67;;;;;;;2.42;96.05;103185.41;2096711;28;44205;-74
2022/01/26 00:41:45;;;;;;;105.07;34.67;;;;;;;2.43;96.04;103192.53;2088012;28;45685;-75
2022/01/26 00:42:49;;;;;;;106.13;34.55;;;;;;;2.41;95.66;103191.56;2088799;28;46029;-74
2022/01/26 00:43:55;;;;;;;98.00;34.03;;;;;;;2.40;96.09;103192.38;2097584;28;45870;-74
2022/01/26 00:44:59;;;;;;;99.13;30.85;;;;;;;2.40;95.92;103187.06;2097859;28;33942;-74
2022/01/26 00:46:04;;;;;;;114.28;34.47;;;;;;;2.40;96.00;103187.97;2088521;28;43372;-74
2022/01/26 00:47:06;;;;;;;99.70;32.58;;;;;;;2.42;96.13;103190.69;2093562;28;44632;-74
2022/01/26 00:48:10;;;;;;;93.80;32.38;;;;;;;2.41;95.90;103181.88;2088433;28;45871;-73
2022/01/26 00:49:14;;;;;;;103.57;34.45;;;;;;;2.40;96.02;103176.50;2072779;28;43754;-75
2022/01/26 00:50:17;;;;;;;98.20;33.60;;;;;;;2.40;95.91;103176.50;2089564;28;38357;-75
2022/01/26 00:51:21;;;;;;;95.78;33.25;;;;;;;2.40;96.23;103172.13;2097746;28;44517;-74
2022/01/26 00:52:36;;;;;;;92.95;32.28;;;;;;;2.40;96.24;103174.75;2091822;28;45513;-74
2022/01/26 00:53:44;;;;;;;94.88;31.67;;;;;;;2.39;95.92;103175.59;2097272;28;46450;-74
2022/01/26 00:54:46;;;;;;;96.22;32.33;;;;;;;2.39;96.37;103169.44;2096884;28;44898;-74
2022/01/26 00:55:47;;;;;;;106.30;34.78;;;;;;;2.38;95.74;103170.25;2097652;28;44311;-74
2022/01/26 00:56:49;;;;;;;104.78;33.47;;;;;;;2.38;96.07;103167.59;2097368;28;44566;-74
2022/01/26 00:57:51;;;;;;;103.90;34.60;;;;;;;2.38;96.01;103167.59;2099977;28;43129;-75
2022/01/26 00:58:54;;;;;;;103.63;34.90;;;;;;;2.38;96.05;103164.97;2106140;28;37740;-77
2022/01/26 00:59:58;;;;;;;88.97;31.08;;;;;;;2.37;95.97;103164.06;2105367;28;44716;-77
2022/01/26 01:01:02;;;;;;;103.38;33.60;;;;;;;2.37;96.04;103161.41;2105782;28;44133;-77
2022/01/26 01:02:04;;;;;;;93.45;33.53;;;;;;;2.36;96.21;103164.88;2097433;28;27725;-76
2022/01/26 01:03:06;;;;;;;100.03;33.53;;;;;;;2.36;95.96;103156.06;2096793;28;44026;-76
2022/01/26 01:04:08;;;;;;;98.57;34.13;;;;;;;2.34;96.00;103152.44;2096709;28;46217;-76
2022/01/26 01:05:23;;;;;;;98.07;32.50;;;;;;;2.35;96.56;103148.94;2087845;28;44661;-76
2022/01/26 01:06:28;;;;;;;94.35;32.47;;;;;;;2.34;96.30;103147.16;2090888;28;43956;-77
2022/01/26 01:07:36;;;;;;;101.85;34.55;;;;;;;2.33;96.27;103143.56;2097199;28;44641;-76
2022/01/26 01:08:41;;;;;;;93.78;31.63;;;;;;;2.33;96.20;103151.50;2097776;28;43121;-76
2022/01/26 01:09:42;;;;;;;101.78;34.00;;;;;;;2.34;96.13;103157.72;2088226;28;39780;-76
2022/01/26 01:10:46;;;;;;;100.13;34.15;;;;;;;2.35;96.27;103156.88;2089518;28;42285;-76
2022/01/26 01:11:55;;;;;;;100.75;33.38;;;;;;;2.32;96.27;103157.66;2090136;28;45281;-76
2022/01/26 01:12:58;;;;;;;102.28;32.40;;;;;;;2.33;95.93;103147.97;2098235;28;46618;-76
2022/01/26 01:14:00;;;;;;;94.57;31.45;;;;;;;2.31;96.04;103147.91;2105944;28;42702;-75
2022/01/26 01:15:03;;;;;;;103.47;35.60;;;;;;;2.29;96.22;103147.81;2096622;28;44471;-76
2022/01/26 01:16:10;;;;;;;105.18;34.70;;;;;;;2.29;96.57;103136.34;2096845;28;44276;-76
2022/01/26 01:17:21;;;;;;;96.20;30.80;;;;;;;2.30;96.15;103140.81;2104931;28;45290;-76
2022/01/26 01:18:48;;;;;;;103.18;32.65;;;;;;;2.28;96.18;103135.47;2096760;28;37324;-76
2022/01/26 01:23:46;;;;;;;97.88;34.08;;;;;;;2.27;96.36;103149.50;2105442;28;43897;-76
2022/01/26 01:25:14;;;;;;;99.20;31.38;;;;;;;2.28;96.16;103151.31;2105579;28;45109;-76
2022/01/26 01:26:41;;;;;;;91.55;31.23;;;;;;;2.27;96.45;103132.75;2105173;28;43220;-76
2022/01/26 01:28:15;;;;;;;94.03;31.23;;;;;;;2.27;95.91;103138.91;2105811;28;45050;-76
2022/01/26 01:30:32;;;;;;;90.82;30.05;;;;;;;2.26;96.36;103142.41;2097231;28;43879;-76
2022/01/26 01:31:49;;;;;;;96.57;32.20;;;;;;;2.26;95.84;103137.13;2097310;28;46322;-77
2022/01/26 01:33:05;;;;;;;93.35;31.58;;;;;;;2.26;96.46;103137.13;2097009;28;44764;-76
2022/01/26 01:34:08;;;;;;;96.90;30.95;;;;;;;2.26;95.67;103134.47;2097177;28;45542;-76
2022/01/26 01:35:11;;;;;;;98.13;32.08;;;;;;;2.27;96.41;103133.63;2097301;28;44708;-76
2022/01/26 01:36:13;;;;;;;92.93;30.23;;;;;;;2.27;95.96;103138.03;2097252;28;43805;-76
2022/01/26 01:37:16;;;;;;;102.22;32.63;;;;;;;2.28;96.06;103148.66;2099321;28;45988;-77
2022/01/26 01:38:20;;;;;;;96.13;32.42;;;;;;;2.27;96.03;103148.59;2105346;28;44771;-76
2022/01/26 01:39:23;;;;;;;94.72;29.52;;;;;;;2.27;96.13;103153.88;2096946;28;45388;-77
2022/01/26 01:40:24;;;;;;;100.40;31.52;;;;;;;2.28;96.61;103153.97;2096601;28;47521;-76
2022/01/26 01:41:26;;;;;;;95.63;31.50;;;;;;;2.27;96.02;103149.50;2105514;28;42154;-77
2022/01/26 01:42:28;;;;;;;84.38;29.02;;;;;;;2.29;96.09;103157.50;2104976;28;42284;-76
2022/01/26 01:43:29;;;;;;;83.50;30.15;;;;;;;2.27;95.58;103144.19;2105625;28;44630;-77
2022/01/26 01:44:31;;;;;;;91.57;31.65;;;;;;;2.26;95.74;103137.13;2105207;28;47026;-77
2022/01/26 01:45:45;;;;;;;81.55;28.90;;;;;;;2.27;95.94;103133.63;2105562;28;44004;-76
2022/01/26 01:46:50;;;;;;;83.22;28.35;;;;;;;2.26;96.11;103134.47;2105396;28;44405;-76
2022/01/26 01:47:52;;;;;;;92.45;31.02;;;;;;;2.26;95.85;103134.47;2096123;28;40136;-76
2022/01/26 01:48:53;;;;;;;82.65;29.90;;;;;;;2.25;96.12;103126.47;2096357;28;45819;-77
2022/01/26 01:49:55;;;;;;;84.47;29.48;;;;;;;2.27;95.83;103130.09;2097352;28;42981;-77
2022/01/26 01:51:02;;;;;;;84.72;30.23;;;;;;;2.27;95.83;103135.38;2097016;28;44208;-76
2022/01/26 01:52:11;;;;;;;77.72;27.77;;;;;;;2.26;96.04;103138.84;2097280;28;42162;-77
2022/01/26 01:53:16;;;;;;;76.88;26.30;;;;;;;2.27;95.92;103128.34;2099509;28;45396;-77
2022/01/26 01:54:19;;;;;;;81.55;28.02;;;;;;;2.25;95.84;103124.72;2105673;28;45852;-77
2022/01/26 01:55:25;;;;;;;84.53;29.05;;;;;;;2.25;95.83;103122.09;2105365;28;45497;-77
2022/01/26 01:56:27;;;;;;;82.07;27.95;;;;;;;2.24;95.45;103122.00;2105546;28;46161;-76
2022/01/26 01:57:29;;;;;;;88.13;30.02;;;;;;;2.24;95.34;103122.94;2105095;28;43319;-77
2022/01/26 01:58:33;;;;;;;81.97;29.08;;;;;;;2.26;95.67;103115.06;2106552;28;20922;-76
2022/01/26 01:59:35;;;;;;;81.00;29.27;;;;;;;2.26;95.77;103107.13;2105135;28;46737;-77
2022/01/26 02:00:39;;;;;;;83.22;29.02;;;;;;;2.27;96.10;103111.59;2105489;28;44094;-77
2022/01/26 02:01:41;;;;;;;78.43;28.45;;;;;;;2.25;95.96;103098.31;2105280;28;45306;-76
2022/01/26 02:02:43;;;;;;;82.00;28.17;;;;;;;2.24;95.49;103091.22;2105993;28;43664;-77
2022/01/26 02:03:45;;;;;;;81.05;28.02;;;;;;;2.26;95.94;103093.91;2105324;28;45013;-77
2022/01/26 02:04:47;;;;;;;77.40;28.15;;;;;;;2.25;95.74;103086.84;2105653;28;46495;-77
2022/01/26 02:05:48;;;;;;;80.38;28.15;;;;;;;2.25;95.39;103095.66;2105368;28;44449;-76
2022/01/26 02:06:51;;;;;;;78.57;27.02;;;;;;;2.25;95.62;103097.41;2105422;28;45609;-76
2022/01/26 02:07:53;;;;;;;71.35;27.05;;;;;;;2.23;95.87;103099.97;2104460;28;44638;-77
2022/01/26 02:08:54;;;;;;;72.25;26.67;;;;;;;2.23;95.50;103097.34;2105684;28;42735;-76
2022/01/26 02:09:56;;;;;;;72.38;26.35;;;;;;;2.23;95.10;103099.97;2105410;28;43110;-76
2022/01/26 02:10:58;;;;;;;71.82;27.70;;;;;;;2.25;95.60;103086.84;2105444;28;44883;-76
2022/01/26 02:12:02;;;;;;;71.75;27.75;;;;;;;2.24;95.01;103085.00;2105230;28;45591;-76
2022/01/26 02:13:16;;;;;;;71.97;25.30;;;;;;;2.23;95.59;103083.22;2104749;28;47226;-77
2022/01/26 02:14:36;;;;;;;69.05;25.02;;;;;;;2.23;95.20;103089.41;2096023;28;45847;-76
2022/01/26 02:15:47;;;;;;;66.85;25.67;;;;;;;2.23;95.43;103089.41;2101119;28;46561;-77
2022/01/26 02:17:00;;;;;;;73.47;26.35;;;;;;;2.24;95.60;103085.94;2105069;28;45967;-76
2022/01/26 02:18:29;;;;;;;71.53;24.95;;;;;;;2.22;95.37;103077.00;2105654;28;20075;-76
2022/01/26 02:50:08;;;;;;;48.33;19.65;;;;;;;2.21;94.72;103101.66;2079842;28;43855;-75
2022/01/26 02:52:38;;;;;;;57.45;20.58;;;;;;;2.21;94.36;103096.34;2071193;28;45098;-75
2022/01/26 02:55:04;;;;;;;51.33;21.02;;;;;;;2.20;94.44;103073.41;2080112;28;45085;-75
2022/01/26 02:56:13;;;;;;;52.00;21.20;;;;;;;2.19;94.42;103062.75;2079620;28;42826;-75
2022/01/26 02:57:35;;;;;;;54.05;20.25;;;;;;;2.19;94.67;103060.09;2071346;28;40566;-75
2022/01/26 03:01:09;;;;;;;52.45;21.95;;;;;;;2.16;94.57;103042.38;2079100;28;46130;-75
2022/01/26 03:02:24;;;;;;;56.90;21.75;;;;;;;2.15;94.89;103040.56;2079922;28;45469;-75
2022/01/26 03:03:36;;;;;;;56.55;21.15;;;;;;;2.15;94.73;103035.28;2082378;28;46610;-75
2022/01/26 03:04:48;;;;;;;56.08;21.75;;;;;;;2.16;94.60;103036.22;2079912;28;42039;-75
2022/01/26 03:05:56;;;;;;;56.20;21.55;;;;;;;2.15;94.79;103035.28;2070335;28;43196;-75
2022/01/26 03:07:11;;;;;;;61.47;22.27;;;;;;;2.12;94.65;103036.88;2062903;28;43651;-75
2022/01/26 03:08:13;;;;;;;59.63;21.38;;;;;;;2.13;94.85;103052.81;2064017;28;43573;-75
2022/01/26 03:09:23;;;;;;;62.10;22.48;;;;;;;2.13;94.66;103060.72;2063153;28;44959;-75
2022/01/26 03:11:35;;;;;;;57.22;22.00;;;;;;;2.14;94.97;103070.47;2071118;28;45668;-75
2022/01/26 03:12:49;;;;;;;59.58;21.38;;;;;;;2.13;94.98;103066.03;2071646;28;46007;-75
2022/01/26 03:14:03;;;;;;;65.63;22.85;;;;;;;2.12;94.94;103074.81;2073088;28;20799;-75
2022/01/26 03:15:14;;;;;;;55.75;21.23;;;;;;;2.12;95.25;103077.44;2071037;28;45119;-75
2022/01/26 03:16:26;;;;;;;55.88;22.10;;;;;;;2.13;95.01;103076.59;2077302;28;44538;-75
2022/01/26 03:17:51;;;;;;;57.55;21.08;;;;;;;2.13;95.00;103081.88;2070821;28;43913;-75
2022/01/26 03:19:14;;;;;;;53.92;20.88;;;;;;;2.13;94.77;103080.97;2074153;28;44448;-75
2022/01/26 03:20:17;;;;;;;55.22;20.50;;;;;;;2.12;94.63;103074.81;2070981;28;45627;-75
2022/01/26 03:21:26;;;;;;;56.50;21.48;;;;;;;2.09;94.86;103074.66;2062312;28;46332;-75
2022/01/26 03:28:14;;;;;;;52.22;20.65;;;;;;;2.09;94.84;103064.06;2071610;28;40650;-75
2022/01/26 03:28:25;;;;;;;53.20;21.80;;;;;;;2.07;95.00;103047.25;2071818;28;44064;-75
2022/01/26 03:33:12;;;;;;;57.20;21.10;;;;;;;2.07;95.05;103056.06;2071083;28;43551;-75
2022/01/26 03:34:16;;;;;;;54.97;21.00;;;;;;;2.07;95.17;103050.78;2066886;28;45886;-76
2022/01/26 03:36:54;;;;;;;56.58;20.75;;;;;;;2.07;94.96;103055.19;2070534;28;44879;-75
2022/01/26 03:37:57;;;;;;;59.15;20.92;;;;;;;2.06;94.93;103056.00;2062838;28;46467;-76
2022/01/26 03:39:08;;;;;;;56.05;21.88;;;;;;;2.06;95.21;103053.34;2063614;28;43023;-76
2022/01/26 03:40:15;;;;;;;55.13;21.08;;;;;;;2.06;95.16;103048.06;2071588;28;45423;-76
2022/01/26 03:41:33;;;;;;;57.90;21.17;;;;;;;2.04;95.19;103050.63;2062299;28;46295;-75
2022/01/26 03:42:34;;;;;;;55.03;20.67;;;;;;;2.02;94.56;103047.03;2068602;28;42720;-75
2022/01/26 03:43:36;;;;;;;60.40;22.05;;;;;;;2.02;94.99;103051.41;2079651;28;37474;-75
2022/01/26 03:44:41;;;;;;;52.28;21.13;;;;;;;2.02;94.56;103054.94;2064114;28;20042;-75
2022/01/26 03:45:43;;;;;;;55.88;21.55;;;;;;;2.02;94.80;103051.41;2063757;28;44449;-75
2022/01/26 03:46:47;;;;;;;56.42;21.58;;;;;;;2.01;94.68;103047.88;2080249;28;34965;-75
2022/01/26 03:47:49;;;;;;;55.33;22.08;;;;;;;2.02;94.73;103043.50;2071693;28;30490;-75
2022/01/26 03:48:51;;;;;;;56.20;22.35;;;;;;;2.03;95.38;103053.25;2062964;28;44141;-75
2022/01/26 03:49:53;;;;;;;58.67;22.08;;;;;;;2.02;94.96;103054.06;2070756;28;43936;-75
2022/01/26 03:50:54;;;;;;;57.50;22.35;;;;;;;2.02;94.91;103052.31;2070862;28;42885;-75
2022/01/26 03:51:56;;;;;;;60.53;23.13;;;;;;;2.02;94.62;103051.41;2062586;28;40966;-75
2022/01/26 03:52:58;;;;;;;56.75;21.48;;;;;;;2.03;95.09;103055.88;2062865;28;44945;-75
2022/01/26 03:54:01;;;;;;;58.42;21.67;;;;;;;2.02;95.09;103054.06;2062842;28;45203;-75
2022/01/26 03:55:04;;;;;;;52.70;21.98;;;;;;;2.03;94.39;103053.25;2063355;28;46490;-75
2022/01/26 03:56:06;;;;;;;58.30;22.70;;;;;;;2.02;95.00;103054.06;2062573;28;45181;-75
2022/01/26 03:57:08;;;;;;;49.83;20.15;;;;;;;2.00;95.19;103056.63;2062827;28;46445;-75
2022/01/26 03:58:10;;;;;;;59.05;22.27;;;;;;;2.00;94.61;103053.97;2071203;28;42120;-75
2022/01/26 03:59:12;;;;;;;55.90;21.45;;;;;;;2.00;94.65;103048.69;2079900;28;42894;-75
2022/01/26 04:00:15;;;;;;;57.97;22.23;;;;;;;1.99;95.15;103048.63;2070743;28;39244;-73
2022/01/26 04:01:17;;;;;;;56.53;22.85;;;;;;;2.00;94.95;103045.16;2071216;28;44126;-74
2022/01/26 04:02:18;;;;;;;56.95;23.08;;;;;;;1.98;95.17;103038.91;2078788;28;46414;-74
2022/01/26 04:03:20;;;;;;;61.40;22.80;;;;;;;1.98;94.56;103039.81;2079582;28;43277;-74
2022/01/26 04:04:23;;;;;;;56.47;22.17;;;;;;;1.97;94.37;103039.72;2079325;28;44290;-76
2022/01/26 04:05:28;;;;;;;56.38;21.48;;;;;;;1.97;95.17;103037.97;2079950;28;41772;-75
2022/01/26 04:06:32;;;;;;;55.78;22.80;;;;;;;1.97;94.63;103039.72;2079473;28;43908;-74
2022/01/26 04:07:36;;;;;;;61.72;22.98;;;;;;;1.97;94.98;103037.97;2070212;28;46236;-75
2022/01/26 04:08:40;;;;;;;56.47;21.90;;;;;;;1.95;94.84;103033.47;2071651;28;41148;-75
2022/01/26 04:09:42;;;;;;;57.38;21.38;;;;;;;1.97;95.00;103042.38;2080435;28;43566;-75
2022/01/26 04:12:09;;;;;;;59.88;22.42;;;;;;;1.96;94.93;103053.78;2046352;28;41966;-75
2022/01/26 04:13:11;;;;;;;60.80;23.25;;;;;;;1.98;94.85;103060.03;2063031;28;44198;-75
2022/01/26 04:14:20;;;;;;;57.83;21.35;;;;;;;1.97;94.78;103052.94;2062812;28;39290;-75
2022/01/26 04:15:27;;;;;;;54.08;22.60;;;;;;;1.97;95.02;103060.88;2055503;28;45351;-74
2022/01/26 04:16:32;;;;;;;54.70;22.15;;;;;;;1.96;94.79;103057.31;2064873;28;47644;-75
2022/01/26 04:17:34;;;;;;;59.03;22.25;;;;;;;1.97;94.95;103068.78;2070842;28;44552;-75
2022/01/26 04:18:39;;;;;;;59.08;20.58;;;;;;;1.97;94.50;103064.41;2062740;28;43919;-75
2022/01/26 04:19:41;;;;;;;58.35;22.80;;;;;;;1.94;94.48;103059.00;2063444;28;38706;-75
2022/01/26 04:20:47;;;;;;;60.67;21.63;;;;;;;1.95;94.82;103062.53;2070813;28;44959;-75
2022/01/26 04:23:29;;;;;;;49.22;18.70;;;;;;;1.95;94.75;103063.44;2068807;28;43170;-75
2022/01/26 04:24:39;;;;;;;61.72;22.35;;;;;;;1.95;94.57;103070.47;2071604;28;43272;-75
2022/01/26 04:25:43;;;;;;;57.55;22.17;;;;;;;1.94;94.81;103071.28;2070798;28;44660;-75
2022/01/26 04:27:14;;;;;;;58.78;21.88;;;;;;;1.94;94.91;103079.19;2070681;28;45165;-75
2022/01/26 04:28:16;;;;;;;55.88;21.17;;;;;;;1.94;94.93;103074.84;2062488;28;46703;-74
2022/01/26 04:29:26;;;;;;;64.45;21.70;;;;;;;1.94;94.74;103068.63;2066993;28;43553;-76
2022/01/26 04:30:28;;;;;;;66.68;23.98;;;;;;;1.93;94.76;103074.78;2070649;28;42914;-75
2022/01/26 04:31:30;;;;;;;64.65;22.73;;;;;;;1.93;95.05;103069.47;2062421;28;46361;-75
2022/01/26 04:32:31;;;;;;;64.68;23.80;;;;;;;1.89;94.50;103064.03;2062791;28;39675;-75
2022/01/26 04:33:37;;;;;;;65.38;24.77;;;;;;;1.89;94.80;103065.78;2062248;28;47291;-73
2022/01/26 04:34:41;;;;;;;61.35;24.02;;;;;;;1.89;94.73;103065.78;2055375;28;43630;-75
2022/01/26 04:35:45;;;;;;;64.57;23.15;;;;;;;1.89;94.88;103060.50;2062995;28;43244;-75
2022/01/26 04:36:59;;;;;;;64.47;25.13;;;;;;;1.90;95.09;103059.66;2067631;28;47117;-76
2022/01/26 04:38:18;;;;;;;56.65;21.50;;;;;;;1.89;94.96;103061.41;2064273;28;43949;-75
2022/01/26 04:39:26;;;;;;;61.25;22.63;;;;;;;1.90;94.71;103057.94;2064937;28;45928;-75
2022/01/26 04:40:35;;;;;;;63.50;23.45;;;;;;;1.90;95.21;103055.31;2062940;28;45643;-75
2022/01/26 04:41:43;;;;;;;67.18;23.75;;;;;;;1.89;95.34;103045.56;2071728;28;45326;-75
2022/01/26 04:43:01;;;;;;;68.30;25.80;;;;;;;1.88;95.13;103051.69;2062288;28;46035;-75
2022/01/26 04:44:11;;;;;;;69.93;24.20;;;;;;;1.87;95.03;103046.34;2059782;28;44565;-76
2022/01/26 04:45:13;;;;;;;65.40;23.13;;;;;;;1.87;95.00;103043.69;2057760;28;45883;-75
2022/01/26 04:46:15;;;;;;;69.40;24.20;;;;;;;1.86;95.09;103041.88;2055348;28;43381;-75
2022/01/26 04:47:16;;;;;;;69.05;23.33;;;;;;;1.87;95.46;103041.06;2054720;28;44221;-75
2022/01/26 04:48:19;;;;;;;67.60;25.42;;;;;;;1.85;95.52;103033.06;2062387;28;46736;-75
2022/01/26 04:49:21;;;;;;;70.65;24.58;;;;;;;1.85;95.63;103032.16;2071483;28;43153;-75
2022/01/26 04:50:22;;;;;;;75.05;26.40;;;;;;;1.84;95.55;103033.88;2070612;28;38068;-76
2022/01/26 04:51:24;;;;;;;67.70;23.83;;;;;;;1.83;95.65;103029.44;2071309;28;44500;-75
2022/01/26 04:52:26;;;;;;;73.97;25.00;;;;;;;1.84;95.55;103038.25;2069483;28;40629;-76
2022/01/26 04:53:28;;;;;;;75.18;25.75;;;;;;;1.83;95.80;103028.50;2071394;28;20034;-75
2022/01/26 04:54:30;;;;;;;73.60;25.42;;;;;;;1.83;95.69;103023.22;2062287;28;44526;-75
2022/01/26 04:55:32;;;;;;;78.30;25.85;;;;;;;1.79;95.89;103016.00;2062743;28;45364;-76
2022/01/26 04:56:34;;;;;;;73.63;24.48;;;;;;;1.79;95.85;103014.25;2053959;28;45310;-75
2022/01/26 04:57:35;;;;;;;74.22;24.50;;;;;;;1.77;95.97;103018.56;2048872;28;45388;-76
2022/01/26 04:58:37;;;;;;;72.00;25.08;;;;;;;1.79;95.90;103002.81;2053774;28;45546;-75
2022/01/26 04:59:39;;;;;;;72.70;24.17;;;;;;;1.79;95.57;103013.38;2062584;28;43980;-75
2022/01/26 05:00:40;;;;;;;67.20;23.45;;;;;;;1.78;95.75;103003.66;2070706;28;41689;-75
2022/01/26 05:01:43;;;;;;;79.50;26.05;;;;;;;1.77;95.92;103010.66;2062559;28;45482;-75
2022/01/26 05:02:46;;;;;;;79.10;25.60;;;;;;;1.77;95.99;103002.72;2054449;28;45576;-75
2022/01/26 05:03:48;;;;;;;78.50;25.48;;;;;;;1.75;95.52;102999.13;2053913;28;45191;-76
2022/01/26 05:04:49;;;;;;;68.45;24.27;;;;;;;1.77;95.63;102996.53;2054106;28;46282;-75
2022/01/26 05:05:51;;;;;;;75.30;24.73;;;;;;;1.76;95.69;102990.38;2062806;28;45170;-75
2022/01/26 05:06:53;;;;;;;76.75;25.98;;;;;;;1.76;95.85;102986.81;2074377;28;46442;-75
2022/01/26 05:07:54;;;;;;;76.28;24.60;;;;;;;1.75;95.65;102982.38;2070867;28;43344;-75
2022/01/26 05:08:56;;;;;;;72.30;24.05;;;;;;;1.75;95.57;102985.00;2046201;28;45535;-76
2022/01/26 05:09:58;;;;;;;76.93;25.45;;;;;;;1.74;95.55;102986.72;2038807;28;45758;-76
2022/01/26 05:11:01;;;;;;;76.25;25.20;;;;;;;1.74;95.83;102999.03;2046566;28;43622;-75
2022/01/26 05:12:23;;;;;;;69.80;23.73;;;;;;;1.71;95.50;102995.44;2069133;28;20069;-75
2022/01/26 05:13:25;;;;;;;76.18;25.98;;;;;;;1.71;95.29;102991.88;2070534;28;42140;-75
2022/01/26 05:14:27;;;;;;;76.28;25.77;;;;;;;1.72;95.60;102988.41;2062601;28;44060;-75
2022/01/26 05:15:28;;;;;;;73.85;24.70;;;;;;;1.71;95.42;102997.16;2062398;28;38007;-76
2022/01/26 05:16:30;;;;;;;70.47;25.88;;;;;;;1.70;95.73;102990.06;2062756;28;43904;-76
2022/01/26 05:17:32;;;;;;;71.30;25.25;;;;;;;1.70;95.31;102995.34;2061778;28;48432;-76
2022/01/26 05:18:37;;;;;;;76.65;24.42;;;;;;;1.69;95.47;103005.00;2071255;28;39566;-76
2022/01/26 05:19:42;;;;;;;72.47;25.60;;;;;;;1.68;95.29;103002.28;2080364;28;20928;-75
2022/01/26 05:20:43;;;;;;;72.85;25.77;;;;;;;1.67;95.26;103014.59;2070835;28;22952;-75
2022/01/26 05:21:45;;;;;;;76.50;25.98;;;;;;;1.66;94.96;103012.78;2069801;28;44706;-76
2022/01/26 05:22:47;;;;;;;70.97;24.73;;;;;;;1.65;95.12;103008.34;2070458;28;42948;-75
2022/01/26 05:23:49;;;;;;;70.70;24.00;;;;;;;1.64;94.88;103017.09;2070542;28;44284;-75
2022/01/26 05:24:52;;;;;;;74.05;24.80;;;;;;;1.64;95.25;103022.38;2071811;28;41738;-75
2022/01/26 05:25:55;;;;;;;72.30;25.15;;;;;;;1.67;95.38;103026.88;2063776;28;45675;-76
2022/01/26 05:26:57;;;;;;;74.25;24.50;;;;;;;1.65;95.67;103020.63;2071485;28;44572;-75
2022/01/26 05:27:58;;;;;;;72.25;25.17;;;;;;;1.64;95.53;103026.75;2062984;28;46255;-75
2022/01/26 05:29:00;;;;;;;72.35;25.77;;;;;;;1.63;95.91;103019.66;2064390;28;45792;-75
2022/01/26 05:30:04;;;;;;;70.70;24.42;;;;;;;1.63;95.27;103017.00;2071603;28;44040;-76
2022/01/26 05:31:05;;;;;;;70.13;23.65;;;;;;;1.64;95.25;103024.13;2064418;28;46400;-75
2022/01/26 05:32:07;;;;;;;73.70;25.33;;;;;;;1.62;95.39;103024.03;2072181;28;38293;-76
2022/01/26 05:33:09;;;;;;;72.45;24.98;;;;;;;1.61;95.03;103023.97;2080327;28;44358;-76
2022/01/26 05:34:11;;;;;;;71.50;23.92;;;;;;;1.60;95.05;103019.50;2071757;28;44486;-75
2022/01/26 05:35:13;;;;;;;70.25;23.77;;;;;;;1.57;94.92;103020.28;2071892;28;43853;-76
2022/01/26 05:36:14;;;;;;;71.90;24.13;;;;;;;1.58;94.84;103021.16;2063512;28;44940;-75
2022/01/26 05:37:16;;;;;;;62.85;22.90;;;;;;;1.57;94.96;103029.94;2072074;28;42258;-75
2022/01/26 05:38:20;;;;;;;73.20;24.58;;;;;;;1.56;95.08;103023.72;2080412;28;43940;-75
2022/01/26 05:39:22;;;;;;;68.60;23.05;;;;;;;1.57;94.98;103032.56;2071836;28;45629;-75
2022/01/26 05:40:24;;;;;;;79.93;25.42;;;;;;;1.55;95.14;103027.22;2064919;28;20070;-75
2022/01/26 05:41:26;;;;;;;68.30;21.50;;;;;;;1.57;95.31;103036.13;2064196;28;45481;-75
2022/01/26 05:42:28;;;;;;;66.75;22.92;;;;;;;1.57;94.84;103035.22;2054669;28;44690;-76
2022/01/26 05:43:33;;;;;;;72.30;24.23;;;;;;;1.55;94.97;103032.50;2064463;28;45642;-76
2022/01/26 05:44:35;;;;;;;73.57;24.45;;;;;;;1.56;95.22;103028.13;2071250;28;47015;-76
2022/01/26 05:45:39;;;;;;;75.45;25.15;;;;;;;1.56;95.16;103031.66;2064024;28;43049;-78
2022/01/26 05:46:46;;;;;;;73.22;25.27;;;;;;;1.56;95.32;103020.19;2072123;28;43943;-75
2022/01/26 05:47:48;;;;;;;68.22;24.38;;;;;;;1.55;95.30;103015.75;2079431;28;46130;-76
2022/01/26 05:48:51;;;;;;;72.13;24.20;;;;;;;1.54;95.59;103006.91;2080643;28;40034;-75
2022/01/26 05:49:56;;;;;;;76.00;24.50;;;;;;;1.51;95.51;103001.50;2080516;28;44555;-75
2022/01/26 05:51:04;;;;;;;74.38;24.92;;;;;;;1.49;95.34;103000.50;2080369;28;44787;-75
2022/01/26 05:52:06;;;;;;;68.85;22.98;;;;;;;1.51;95.30;102999.78;2070896;28;43442;-78
2022/01/26 05:53:08;;;;;;;70.97;24.42;;;;;;;1.50;95.75;102997.94;2062722;28;47537;-78
2022/01/26 05:54:10;;;;;;;72.80;23.70;;;;;;;1.48;95.56;103002.25;2063486;28;43615;-77
2022/01/26 05:55:12;;;;;;;69.07;22.77;;;;;;;1.46;95.31;103001.28;2063425;28;44976;-77
2022/01/26 05:56:15;;;;;;;73.75;24.13;;;;;;;1.47;95.08;102995.19;2071903;28;44482;-78
2022/01/26 05:57:17;;;;;;;71.22;23.67;;;;;;;1.46;95.09;102993.38;2079049;28;44083;-78
2022/01/26 05:58:19;;;;;;;71.43;24.83;;;;;;;1.47;95.31;102975.78;2071841;28;44819;-78
2022/01/26 05:59:21;;;;;;;72.50;24.08;;;;;;;1.48;95.39;102977.59;2071954;28;44072;-78
2022/01/26 06:00:23;;;;;;;74.05;23.33;;;;;;;1.48;95.62;102977.59;2063544;28;44245;-75
2022/01/26 06:01:26;;;;;;;80.95;23.40;;;;;;;1.47;95.51;102971.44;2056886;28;20096;-78
2022/01/26 06:02:30;;;;;;;70.53;23.40;;;;;;;1.45;95.29;102980.09;2064083;28;44138;-78
2022/01/26 06:03:32;;;;;;;70.57;22.35;;;;;;;1.46;95.46;102974.88;2075765;28;45628;-76
2022/01/26 06:04:34;;;;;;;76.30;24.15;;;;;;;1.45;95.21;102988.00;2071857;28;45122;-78
2022/01/26 06:05:35;;;;;;;68.97;22.65;;;;;;;1.42;95.21;102986.13;2063607;28;43256;-76
2022/01/26 06:06:37;;;;;;;71.00;22.65;;;;;;;1.43;95.10;102989.69;2071978;28;43923;-79
2022/01/26 06:07:42;;;;;;;71.40;23.17;;;;;;;1.39;94.54;102988.63;2071299;28;42644;-79
2022/01/26 06:08:44;;;;;;;66.05;22.67;;;;;;;1.39;95.36;102982.44;2071666;28;46279;-76
2022/01/26 06:09:46;;;;;;;73.13;23.77;;;;;;;1.39;95.37;102978.06;2055221;28;42878;-76
2022/01/26 06:10:49;;;;;;;70.53;23.58;;;;;;;1.39;95.45;102980.72;2064849;28;20132;-76
2022/01/26 06:11:51;;;;;;;68.57;23.17;;;;;;;1.41;95.26;102980.78;2080085;28;44626;-76
2022/01/26 06:12:53;;;;;;;68.28;22.75;;;;;;;1.39;94.87;102980.72;2071463;28;42964;-77
2022/01/26 06:13:55;;;;;;;68.50;23.55;;;;;;;1.38;95.19;102976.25;2063348;28;45075;-76